ProRodeoTv.Com
Red

PRCA Stock Statistics

SEARCH BY:
Stock Rodeo Contestant Stock Contractor

Zach Hibler

EVENT:
Unofficial results reflect placement at time of Web posting and can change.

SEASON BREAKDOWN

Season Attempts Qual Rides Re-rides Ride %
2017 83 77 0 92.77 %
2016 70 60 0 85.71 %
Totals 153 137 0 0.00 %

RODEO DETAIL

Date Location Rodeo SC Brand Ride Comments Stock Score Contestant Score
9/27/2017 Pasadena, TX Pasadena Livestock Show & Rodeo FR 327 64.00 21.00 / 21.00 12.00 / 10.00
9/24/2017 Stephenville, TX Cowboy Capital Of The World PRCA Rodeo PK 104 77.50 19.50 / 19.00 20.00 / 19.00
9/23/2017 Amarillo, TX Amarillo Tri-State Fair And Rodeo TH J28 75.50 22.00 / 23.00 12.50 / 18.00
9/23/2017 Apache, OK Apache Stampede MT XT 70.00 18.00 / 18.50 15.00 / 18.50
9/13/2017 Abilene, TX West Texas Fair & Rodeo BU 470 76.00 21.00 / 21.00 20.00 / 14.00
9/12/2017 Albuquerque, NM New Mexico State Fair & Rodeo CC -Q68 63.00 17.00 / 17.00 15.00 / 14.00
9/9/2017 Mesquite, TX Mesquite ProRodeo Series UP 051 75.00 19.00 / 18.00 20.00 / 18.00
9/3/2017 Elk City, OK Elk City Rodeo Of Champions BU 604 70.00 18.00 / 18.00 18.00 / 16.00
8/25/2017 Altus, OK Great Plains Stampede Rodeo AN 407 78.50 20.00 / 18.50 20.00 / 20.00
8/24/2017 Alex, OK Doxa Extreme Rodeo BF 003 72.00 20.00 / 20.00 17.00 / 15.00
8/20/2017 Denton, TX North Texas State Fair & Rodeo AN Z69 66.00 19.00 / 18.00 14.00 / 15.00
8/19/2017 Gooding, ID Gooding Pro Rodeo C5 F13 0.00 23.50 / 21.00 0.00 / 0.00
8/18/2017 Canby, OR Canby Rodeo TB -204 79.50 21.00 / 20.50 18.00 / 20.00
8/12/2017 Lovington, NM Lea County Fair & PRCA Rodeo CR 900 79.00 20.00 / 21.00 20.00 / 18.00
8/10/2017 Sikeston, MO Sikeston Jaycee Bootheel Rodeo RH 03 74.00 22.00 / 22.00 15.00 / 15.00
8/9/2017 Crossett, AR Crossett Riding Club 68th Annual PRCA Rodeo PC 868 77.00 18.00 / 18.00 21.00 / 20.00
8/5/2017 Dalhart, TX XIT Rodeo & Reunion FR 623 78.50 20.50 / 21.00 19.00 / 18.00
7/30/2017 Monte Vista, CO San Luis Valley Ski-Hi Stampede SH X40 77.00 21.00 / 20.00 19.00 / 17.00
7/29/2017 Rock Springs, WY Red Desert Roundup DH 1880 78.00 21.00 / 21.00 20.00 / 16.00
7/28/2017 Burlington, CO Kit Carson County Fair & Rodeo RM S-8 78.50 21.00 / 19.50 20.00 / 18.00
7/27/2017 Burwell, NE Nebraska s Big Rodeo BU 623 77.00 19.00 / 21.00 20.00 / 17.00
7/22/2017 Steamboat Springs, CO Steamboat Springs Pro Rodeo Series PK 247 77.00 20.00 / 18.00 21.00 / 18.00
7/22/2017 Cheyenne, WY Cheyenne Frontier Days SA 939 72.00 21.00 / 21.00 17.00 / 13.00
7/21/2017 Woodward, OK Woodward Elks Rodeo BU 120 75.00 20.00 / 21.00 18.00 / 16.00
7/21/2017 Cheyenne, WY Cheyenne Frontier Days SA 238 72.00 19.00 / 19.00 16.00 / 18.00
Page of 4
Per Page
 
 
 
Copyright © 2017 Professional Rodeo Cowboys Association. All rights reserved. No portion of ProRodeo.com may be duplicated, redistributed or manipulated in any form. By accessing any information beyond this page, you agree to abide by the Terms of Use.
PRCA Wrangler National Finals Rodeo Wrangler Champions Challenge Justin Boots Playoffs Xtreme Bulls RAM National Circuit Finals Rodeo ProRodeo Gear ProRodeoTv.com var gaJsHost = (("https:" == document.location.protocol) ? "https://ssl." : "http://www."); document.write(unescape("%3Cscript src='" + gaJsHost + "google-analytics.com/ga.js' type='text/javascript'%3E%3C/script%3E"));